sensor_id;sensor_type;location;lat;lon;timestamp;P1;durP1;ratioP1;P2;durP2;ratioP2
12798;SDS011;19250;42.646;26.980;2023-02-16T00:01:50;24.90;;;19.83;;
12798;SDS011;19250;42.646;26.980;2023-02-16T00:04:19;33.28;;;22.10;;
12798;SDS011;19250;42.646;26.980;2023-02-16T00:06:48;28.50;;;21.57;;
12798;SDS011;19250;42.646;26.980;2023-02-16T00:09:16;34.63;;;24.88;;
12798;SDS011;19250;42.646;26.980;2023-02-16T00:11:45;37.40;;;26.88;;
12798;SDS011;19250;42.646;26.980;2023-02-16T00:14:33;34.42;;;26.05;;
12798;SDS011;19250;42.646;26.980;2023-02-16T00:17:02;40.20;;;29.55;;
12798;SDS011;19250;42.646;26.980;2023-02-16T00:19:30;37.75;;;28.65;;
12798;SDS011;19250;42.646;26.980;2023-02-16T00:22:01;35.80;;;26.55;;
12798;SDS011;19250;42.646;26.980;2023-02-16T00:24:29;34.45;;;26.10;;
12798;SDS011;19250;42.646;26.980;2023-02-16T00:26:57;31.47;;;23.83;;
12798;SDS011;19250;42.646;26.980;2023-02-16T00:29:26;33.67;;;24.75;;
12798;SDS011;19250;42.646;26.980;2023-02-16T00:31:57;33.85;;;24.75;;
12798;SDS011;19250;42.646;26.980;2023-02-16T00:34:35;37.97;;;27.17;;
12798;SDS011;19250;42.646;26.980;2023-02-16T00:37:04;43.95;;;33.70;;
12798;SDS011;19250;42.646;26.980;2023-02-16T00:39:32;47.25;;;33.25;;
12798;SDS011;19250;42.646;26.980;2023-02-16T00:42:01;46.72;;;33.78;;
12798;SDS011;19250;42.646;26.980;2023-02-16T00:44:31;44.20;;;31.88;;
12798;SDS011;19250;42.646;26.980;2023-02-16T00:47:02;42.75;;;32.10;;
12798;SDS011;19250;42.646;26.980;2023-02-16T00:49:45;38.65;;;29.38;;
12798;SDS011;19250;42.646;26.980;2023-02-16T00:52:30;46.63;;;33.97;;
12798;SDS011;19250;42.646;26.980;2023-02-16T00:55:02;44.40;;;35.10;;
12798;SDS011;19250;42.646;26.980;2023-02-16T00:57:32;43.50;;;34.47;;
12798;SDS011;19250;42.646;26.980;2023-02-16T01:00:04;44.75;;;33.33;;
12798;SDS011;19250;42.646;26.980;2023-02-16T01:02:40;39.38;;;28.50;;
12798;SDS011;19250;42.646;26.980;2023-02-16T01:05:08;42.88;;;30.15;;
12798;SDS011;19250;42.646;26.980;2023-02-16T01:07:35;38.42;;;28.45;;
12798;SDS011;19250;42.646;26.980;2023-02-16T01:10:19;34.58;;;26.00;;
12798;SDS011;19250;42.646;26.980;2023-02-16T01:13:04;34.72;;;26.65;;
12798;SDS011;19250;42.646;26.980;2023-02-16T01:15:31;33.75;;;24.88;;
12798;SDS011;19250;42.646;26.980;2023-02-16T01:18:00;36.13;;;27.30;;
12798;SDS011;19250;42.646;26.980;2023-02-16T01:20:27;43.20;;;32.55;;
12798;SDS011;19250;42.646;26.980;2023-02-16T01:22:55;44.03;;;33.40;;
12798;SDS011;19250;42.646;26.980;2023-02-16T01:25:22;37.08;;;27.15;;
12798;SDS011;19250;42.646;26.980;2023-02-16T01:27:49;33.90;;;26.23;;
12798;SDS011;19250;42.646;26.980;2023-02-16T01:30:18;35.70;;;27.02;;
12798;SDS011;19250;42.646;26.980;2023-02-16T01:32:46;35.35;;;26.52;;
12798;SDS011;19250;42.646;26.980;2023-02-16T01:35:17;36.72;;;27.75;;
12798;SDS011;19250;42.646;26.980;2023-02-16T01:37:45;55.60;;;39.03;;
12798;SDS011;19250;42.646;26.980;2023-02-16T01:40:17;40.15;;;29.48;;
12798;SDS011;19250;42.646;26.980;2023-02-16T01:42:51;38.65;;;29.70;;
12798;SDS011;19250;42.646;26.980;2023-02-16T01:45:23;39.53;;;29.75;;
12798;SDS011;19250;42.646;26.980;2023-02-16T01:47:57;38.33;;;27.90;;
12798;SDS011;19250;42.646;26.980;2023-02-16T01:50:36;38.22;;;29.17;;
12798;SDS011;19250;42.646;26.980;2023-02-16T01:53:11;45.55;;;33.35;;
12798;SDS011;19250;42.646;26.980;2023-02-16T01:55:47;50.50;;;37.25;;
12798;SDS011;19250;42.646;26.980;2023-02-16T01:58:19;40.50;;;30.20;;
12798;SDS011;19250;42.646;26.980;2023-02-16T02:03:57;38.85;;;29.48;;
12798;SDS011;19250;42.646;26.980;2023-02-16T02:06:43;35.45;;;27.88;;
12798;SDS011;19250;42.646;26.980;2023-02-16T02:09:12;34.30;;;26.20;;
12798;SDS011;19250;42.646;26.980;2023-02-16T02:11:44;37.05;;;27.48;;
12798;SDS011;19250;42.646;26.980;2023-02-16T02:14:15;36.63;;;27.27;;
12798;SDS011;19250;42.646;26.980;2023-02-16T02:16:51;33.40;;;26.95;;
12798;SDS011;19250;42.646;26.980;2023-02-16T02:19:21;33.63;;;25.65;;
12798;SDS011;19250;42.646;26.980;2023-02-16T02:21:55;33.55;;;25.23;;
12798;SDS011;19250;42.646;26.980;2023-02-16T02:25:03;34.25;;;24.35;;
12798;SDS011;19250;42.646;26.980;2023-02-16T02:27:53;30.92;;;23.38;;
12798;SDS011;19250;42.646;26.980;2023-02-16T02:30:30;31.58;;;24.30;;
12798;SDS011;19250;42.646;26.980;2023-02-16T02:33:14;34.50;;;25.52;;
12798;SDS011;19250;42.646;26.980;2023-02-16T02:35:53;34.63;;;26.00;;
12798;SDS011;19250;42.646;26.980;2023-02-16T02:38:29;36.30;;;26.92;;
12798;SDS011;19250;42.646;26.980;2023-02-16T02:41:03;34.55;;;26.67;;
12798;SDS011;19250;42.646;26.980;2023-02-16T02:43:40;37.65;;;26.13;;
12798;SDS011;19250;42.646;26.980;2023-02-16T02:46:12;35.17;;;26.33;;
12798;SDS011;19250;42.646;26.980;2023-02-16T02:48:44;34.78;;;26.13;;
12798;SDS011;19250;42.646;26.980;2023-02-16T02:51:12;35.25;;;26.20;;
12798;SDS011;19250;42.646;26.980;2023-02-16T02:53:55;38.47;;;28.58;;
12798;SDS011;19250;42.646;26.980;2023-02-16T02:56:39;36.42;;;27.20;;
12798;SDS011;19250;42.646;26.980;2023-02-16T02:59:27;38.17;;;28.58;;
12798;SDS011;19250;42.646;26.980;2023-02-16T03:02:15;37.67;;;28.20;;
12798;SDS011;19250;42.646;26.980;2023-02-16T03:04:43;38.10;;;26.58;;
12798;SDS011;19250;42.646;26.980;2023-02-16T03:07:13;35.78;;;26.13;;
12798;SDS011;19250;42.646;26.980;2023-02-16T03:09:42;36.28;;;26.08;;
12798;SDS011;19250;42.646;26.980;2023-02-16T03:12:09;36.10;;;26.13;;
12798;SDS011;19250;42.646;26.980;2023-02-16T03:14:58;35.85;;;26.05;;
12798;SDS011;19250;42.646;26.980;2023-02-16T03:17:28;33.10;;;24.70;;
12798;SDS011;19250;42.646;26.980;2023-02-16T03:20:17;35.53;;;25.08;;
12798;SDS011;19250;42.646;26.980;2023-02-16T03:23:03;37.92;;;26.80;;
12798;SDS011;19250;42.646;26.980;2023-02-16T03:25:48;38.70;;;27.00;;
12798;SDS011;19250;42.646;26.980;2023-02-16T03:28:35;38.20;;;27.15;;
12798;SDS011;19250;42.646;26.980;2023-02-16T03:31:27;40.60;;;29.02;;
12798;SDS011;19250;42.646;26.980;2023-02-16T03:33:57;43.97;;;30.98;;
12798;SDS011;19250;42.646;26.980;2023-02-16T03:36:25;46.78;;;32.67;;
12798;SDS011;19250;42.646;26.980;2023-02-16T03:38:55;46.40;;;34.58;;
12798;SDS011;19250;42.646;26.980;2023-02-16T03:41:23;43.72;;;32.25;;
12798;SDS011;19250;42.646;26.980;2023-02-16T03:43:51;44.55;;;32.15;;
12798;SDS011;19250;42.646;26.980;2023-02-16T03:46:18;71.47;;;45.95;;
12798;SDS011;19250;42.646;26.980;2023-02-16T03:48:47;82.93;;;55.75;;
12798;SDS011;19250;42.646;26.980;2023-02-16T03:51:14;82.07;;;54.20;;
12798;SDS011;19250;42.646;26.980;2023-02-16T03:53:41;79.80;;;47.75;;
12798;SDS011;19250;42.646;26.980;2023-02-16T03:56:08;68.55;;;43.38;;
12798;SDS011;19250;42.646;26.980;2023-02-16T03:58:36;66.47;;;44.10;;
12798;SDS011;19250;42.646;26.980;2023-02-16T04:01:03;67.45;;;44.47;;
12798;SDS011;19250;42.646;26.980;2023-02-16T04:03:30;60.40;;;40.53;;
12798;SDS011;19250;42.646;26.980;2023-02-16T04:05:59;63.83;;;44.15;;
12798;SDS011;19250;42.646;26.980;2023-02-16T04:08:27;61.70;;;44.50;;
12798;SDS011;19250;42.646;26.980;2023-02-16T04:10:54;58.60;;;41.75;;
12798;SDS011;19250;42.646;26.980;2023-02-16T04:13:21;61.30;;;42.93;;
12798;SDS011;19250;42.646;26.980;2023-02-16T04:15:48;56.42;;;39.65;;
12798;SDS011;19250;42.646;26.980;2023-02-16T04:18:15;55.92;;;39.65;;
12798;SDS011;19250;42.646;26.980;2023-02-16T04:20:43;63.40;;;46.00;;
12798;SDS011;19250;42.646;26.980;2023-02-16T04:23:11;70.20;;;49.97;;
12798;SDS011;19250;42.646;26.980;2023-02-16T04:25:38;71.82;;;49.85;;
12798;SDS011;19250;42.646;26.980;2023-02-16T04:28:06;70.38;;;47.85;;
12798;SDS011;19250;42.646;26.980;2023-02-16T04:30:33;62.13;;;44.93;;
12798;SDS011;19250;42.646;26.980;2023-02-16T04:33:00;57.97;;;43.38;;
12798;SDS011;19250;42.646;26.980;2023-02-16T04:35:27;57.23;;;41.13;;
12798;SDS011;19250;42.646;26.980;2023-02-16T04:37:55;61.70;;;44.70;;
12798;SDS011;19250;42.646;26.980;2023-02-16T04:40:24;68.57;;;47.63;;
12798;SDS011;19250;42.646;26.980;2023-02-16T04:42:51;64.47;;;46.30;;
12798;SDS011;19250;42.646;26.980;2023-02-16T04:45:18;63.03;;;45.30;;
12798;SDS011;19250;42.646;26.980;2023-02-16T04:47:45;58.83;;;41.58;;
12798;SDS011;19250;42.646;26.980;2023-02-16T04:50:12;55.67;;;39.78;;
12798;SDS011;19250;42.646;26.980;2023-02-16T04:52:40;60.55;;;41.20;;
12798;SDS011;19250;42.646;26.980;2023-02-16T04:55:07;58.15;;;41.42;;
12798;SDS011;19250;42.646;26.980;2023-02-16T04:57:36;62.67;;;43.15;;
12798;SDS011;19250;42.646;26.980;2023-02-16T05:00:05;58.47;;;42.25;;
12798;SDS011;19250;42.646;26.980;2023-02-16T05:02:33;55.67;;;39.03;;
12798;SDS011;19250;42.646;26.980;2023-02-16T05:05:01;65.78;;;49.22;;
12798;SDS011;19250;42.646;26.980;2023-02-16T05:07:28;56.20;;;40.65;;
12798;SDS011;19250;42.646;26.980;2023-02-16T05:09:55;57.60;;;41.97;;
12798;SDS011;19250;42.646;26.980;2023-02-16T05:12:23;56.63;;;35.47;;
12798;SDS011;19250;42.646;26.980;2023-02-16T05:15:09;45.13;;;33.33;;
12798;SDS011;19250;42.646;26.980;2023-02-16T05:17:36;55.00;;;39.20;;
12798;SDS011;19250;42.646;26.980;2023-02-16T05:20:03;49.50;;;36.08;;
12798;SDS011;19250;42.646;26.980;2023-02-16T05:22:32;49.83;;;34.95;;
12798;SDS011;19250;42.646;26.980;2023-02-16T05:24:59;47.22;;;34.85;;
12798;SDS011;19250;42.646;26.980;2023-02-16T05:27:28;51.70;;;35.60;;
12798;SDS011;19250;42.646;26.980;2023-02-16T05:29:56;50.92;;;35.65;;
12798;SDS011;19250;42.646;26.980;2023-02-16T05:32:25;51.55;;;36.28;;
12798;SDS011;19250;42.646;26.980;2023-02-16T05:34:52;56.40;;;39.13;;
12798;SDS011;19250;42.646;26.980;2023-02-16T05:37:19;54.00;;;38.25;;
12798;SDS011;19250;42.646;26.980;2023-02-16T05:39:46;49.80;;;38.88;;
12798;SDS011;19250;42.646;26.980;2023-02-16T05:42:14;59.47;;;42.08;;
12798;SDS011;19250;42.646;26.980;2023-02-16T05:44:41;61.08;;;44.58;;
12798;SDS011;19250;42.646;26.980;2023-02-16T05:47:08;56.13;;;41.07;;
12798;SDS011;19250;42.646;26.980;2023-02-16T05:49:37;57.38;;;43.13;;
12798;SDS011;19250;42.646;26.980;2023-02-16T05:52:04;60.17;;;43.53;;
12798;SDS011;19250;42.646;26.980;2023-02-16T05:54:31;39.28;;;28.60;;
12798;SDS011;19250;42.646;26.980;2023-02-16T05:56:59;51.03;;;36.72;;
12798;SDS011;19250;42.646;26.980;2023-02-16T05:59:26;60.17;;;40.13;;
12798;SDS011;19250;42.646;26.980;2023-02-16T06:01:53;48.97;;;36.65;;
12798;SDS011;19250;42.646;26.980;2023-02-16T06:04:20;48.22;;;35.28;;
12798;SDS011;19250;42.646;26.980;2023-02-16T06:06:49;49.55;;;39.05;;
12798;SDS011;19250;42.646;26.980;2023-02-16T06:09:16;53.70;;;40.30;;
12798;SDS011;19250;42.646;26.980;2023-02-16T06:11:44;56.53;;;43.15;;
12798;SDS011;19250;42.646;26.980;2023-02-16T06:14:12;66.15;;;48.45;;
12798;SDS011;19250;42.646;26.980;2023-02-16T06:16:41;115.63;;;77.35;;
12798;SDS011;19250;42.646;26.980;2023-02-16T06:19:09;179.30;;;110.90;;
12798;SDS011;19250;42.646;26.980;2023-02-16T06:21:37;186.10;;;124.13;;
12798;SDS011;19250;42.646;26.980;2023-02-16T06:24:08;220.30;;;151.02;;
12798;SDS011;19250;42.646;26.980;2023-02-16T06:26:37;232.75;;;166.30;;
12798;SDS011;19250;42.646;26.980;2023-02-16T06:29:04;295.65;;;222.45;;
12798;SDS011;19250;42.646;26.980;2023-02-16T06:31:32;314.30;;;253.15;;
12798;SDS011;19250;42.646;26.980;2023-02-16T06:33:59;312.33;;;253.50;;
12798;SDS011;19250;42.646;26.980;2023-02-16T06:36:28;382.95;;;297.70;;
12798;SDS011;19250;42.646;26.980;2023-02-16T06:38:55;342.50;;;270.92;;
12798;SDS011;19250;42.646;26.980;2023-02-16T06:41:24;306.10;;;233.82;;
12798;SDS011;19250;42.646;26.980;2023-02-16T06:44:00;274.33;;;202.55;;
12798;SDS011;19250;42.646;26.980;2023-02-16T06:46:28;211.77;;;160.57;;
12798;SDS011;19250;42.646;26.980;2023-02-16T06:48:56;221.98;;;170.93;;
12798;SDS011;19250;42.646;26.980;2023-02-16T06:51:23;199.18;;;156.07;;
12798;SDS011;19250;42.646;26.980;2023-02-16T06:53:51;188.30;;;147.65;;
12798;SDS011;19250;42.646;26.980;2023-02-16T06:56:18;180.23;;;141.73;;
12798;SDS011;19250;42.646;26.980;2023-02-16T06:58:47;155.25;;;124.03;;
12798;SDS011;19250;42.646;26.980;2023-02-16T07:01:14;145.75;;;116.32;;
12798;SDS011;19250;42.646;26.980;2023-02-16T07:03:47;148.00;;;111.75;;
12798;SDS011;19250;42.646;26.980;2023-02-16T07:06:14;137.27;;;104.43;;
12798;SDS011;19250;42.646;26.980;2023-02-16T07:08:42;124.65;;;90.63;;
12798;SDS011;19250;42.646;26.980;2023-02-16T07:11:09;98.25;;;76.53;;
12798;SDS011;19250;42.646;26.980;2023-02-16T07:13:37;72.43;;;57.90;;
12798;SDS011;19250;42.646;26.980;2023-02-16T07:16:06;52.72;;;38.45;;
12798;SDS011;19250;42.646;26.980;2023-02-16T07:18:33;47.42;;;34.78;;
12798;SDS011;19250;42.646;26.980;2023-02-16T07:21:01;58.63;;;39.22;;
12798;SDS011;19250;42.646;26.980;2023-02-16T07:23:28;52.05;;;36.00;;
12798;SDS011;19250;42.646;26.980;2023-02-16T07:25:55;45.35;;;35.63;;
12798;SDS011;19250;42.646;26.980;2023-02-16T07:28:23;45.53;;;38.23;;
12798;SDS011;19250;42.646;26.980;2023-02-16T07:30:51;43.55;;;38.97;;
12798;SDS011;19250;42.646;26.980;2023-02-16T07:33:19;29.83;;;25.55;;
12798;SDS011;19250;42.646;26.980;2023-02-16T07:35:47;28.60;;;23.23;;
12798;SDS011;19250;42.646;26.980;2023-02-16T07:38:14;29.77;;;24.65;;
12798;SDS011;19250;42.646;26.980;2023-02-16T07:40:41;32.15;;;26.05;;
12798;SDS011;19250;42.646;26.980;2023-02-16T07:43:09;30.08;;;26.25;;
12798;SDS011;19250;42.646;26.980;2023-02-16T07:45:36;37.15;;;31.20;;
12798;SDS011;19250;42.646;26.980;2023-02-16T07:48:03;29.10;;;25.30;;
12798;SDS011;19250;42.646;26.980;2023-02-16T07:50:32;27.17;;;22.25;;
12798;SDS011;19250;42.646;26.980;2023-02-16T07:53:00;28.08;;;24.80;;
12798;SDS011;19250;42.646;26.980;2023-02-16T07:55:27;24.85;;;21.08;;
12798;SDS011;19250;42.646;26.980;2023-02-16T07:57:54;26.42;;;22.95;;
12798;SDS011;19250;42.646;26.980;2023-02-16T08:00:22;26.63;;;21.95;;
12798;SDS011;19250;42.646;26.980;2023-02-16T08:02:49;28.27;;;23.97;;
12798;SDS011;19250;42.646;26.980;2023-02-16T08:05:16;27.45;;;22.52;;
12798;SDS011;19250;42.646;26.980;2023-02-16T08:07:45;26.80;;;22.73;;
12798;SDS011;19250;42.646;26.980;2023-02-16T08:10:13;27.90;;;23.67;;
12798;SDS011;19250;42.646;26.980;2023-02-16T08:12:40;28.20;;;22.73;;
12798;SDS011;19250;42.646;26.980;2023-02-16T08:15:08;28.20;;;25.10;;
12798;SDS011;19250;42.646;26.980;2023-02-16T08:17:36;31.88;;;26.48;;
12798;SDS011;19250;42.646;26.980;2023-02-16T08:20:04;26.58;;;22.80;;
12798;SDS011;19250;42.646;26.980;2023-02-16T08:22:34;25.92;;;22.80;;
12798;SDS011;19250;42.646;26.980;2023-02-16T08:25:03;27.50;;;23.00;;
12798;SDS011;19250;42.646;26.980;2023-02-16T08:27:32;32.47;;;27.00;;
12798;SDS011;19250;42.646;26.980;2023-02-16T08:29:59;35.60;;;27.65;;
12798;SDS011;19250;42.646;26.980;2023-02-16T08:32:27;37.95;;;30.77;;
12798;SDS011;19250;42.646;26.980;2023-02-16T08:34:54;27.55;;;21.73;;
12798;SDS011;19250;42.646;26.980;2023-02-16T08:37:21;34.70;;;28.63;;
12798;SDS011;19250;42.646;26.980;2023-02-16T08:39:49;29.30;;;24.60;;
12798;SDS011;19250;42.646;26.980;2023-02-16T08:42:17;31.15;;;24.40;;
12798;SDS011;19250;42.646;26.980;2023-02-16T08:44:45;35.85;;;28.55;;
12798;SDS011;19250;42.646;26.980;2023-02-16T08:47:12;42.50;;;32.03;;
12798;SDS011;19250;42.646;26.980;2023-02-16T08:49:41;49.00;;;36.80;;
12798;SDS011;19250;42.646;26.980;2023-02-16T08:52:09;45.90;;;33.80;;
12798;SDS011;19250;42.646;26.980;2023-02-16T08:54:36;39.97;;;30.73;;
12798;SDS011;19250;42.646;26.980;2023-02-16T08:57:05;38.00;;;29.60;;
12798;SDS011;19250;42.646;26.980;2023-02-16T08:59:34;29.65;;;24.40;;
12798;SDS011;19250;42.646;26.980;2023-02-16T09:02:01;27.83;;;23.98;;
12798;SDS011;19250;42.646;26.980;2023-02-16T09:04:28;43.50;;;35.53;;
12798;SDS011;19250;42.646;26.980;2023-02-16T09:06:56;26.27;;;22.00;;
12798;SDS011;19250;42.646;26.980;2023-02-16T09:09:24;27.48;;;24.48;;
12798;SDS011;19250;42.646;26.980;2023-02-16T09:11:52;26.17;;;22.80;;
12798;SDS011;19250;42.646;26.980;2023-02-16T09:14:20;27.80;;;24.77;;
12798;SDS011;19250;42.646;26.980;2023-02-16T09:16:49;27.15;;;22.77;;
12798;SDS011;19250;42.646;26.980;2023-02-16T09:19:18;26.87;;;23.23;;
12798;SDS011;19250;42.646;26.980;2023-02-16T09:21:46;25.52;;;21.92;;
12798;SDS011;19250;42.646;26.980;2023-02-16T09:24:14;24.98;;;22.00;;
12798;SDS011;19250;42.646;26.980;2023-02-16T09:26:42;27.40;;;23.63;;
12798;SDS011;19250;42.646;26.980;2023-02-16T09:29:09;23.50;;;20.02;;
12798;SDS011;19250;42.646;26.980;2023-02-16T09:31:38;26.88;;;22.45;;
12798;SDS011;19250;42.646;26.980;2023-02-16T09:34:14;23.85;;;20.40;;
12798;SDS011;19250;42.646;26.980;2023-02-16T09:36:43;24.80;;;19.92;;
12798;SDS011;19250;42.646;26.980;2023-02-16T09:39:11;24.42;;;20.85;;
12798;SDS011;19250;42.646;26.980;2023-02-16T09:41:47;26.63;;;22.73;;
12798;SDS011;19250;42.646;26.980;2023-02-16T09:44:27;39.58;;;35.45;;
12798;SDS011;19250;42.646;26.980;2023-02-16T09:47:05;25.37;;;21.80;;
12798;SDS011;19250;42.646;26.980;2023-02-16T09:49:41;25.20;;;22.50;;
12798;SDS011;19250;42.646;26.980;2023-02-16T09:52:10;26.48;;;23.45;;
12798;SDS011;19250;42.646;26.980;2023-02-16T09:54:44;31.13;;;27.90;;
12798;SDS011;19250;42.646;26.980;2023-02-16T09:57:20;22.73;;;20.13;;
12798;SDS011;19250;42.646;26.980;2023-02-16T09:59:55;27.80;;;24.65;;
12798;SDS011;19250;42.646;26.980;2023-02-16T10:02:41;26.02;;;23.15;;
12798;SDS011;19250;42.646;26.980;2023-02-16T10:05:19;24.73;;;22.13;;
12798;SDS011;19250;42.646;26.980;2023-02-16T10:07:56;27.45;;;24.45;;
12798;SDS011;19250;42.646;26.980;2023-02-16T10:10:30;24.13;;;20.92;;
12798;SDS011;19250;42.646;26.980;2023-02-16T10:13:03;23.77;;;20.70;;
12798;SDS011;19250;42.646;26.980;2023-02-16T10:15:38;25.48;;;22.70;;
12798;SDS011;19250;42.646;26.980;2023-02-16T10:18:13;24.88;;;21.98;;
12798;SDS011;19250;42.646;26.980;2023-02-16T10:20:47;23.37;;;19.47;;
12798;SDS011;19250;42.646;26.980;2023-02-16T10:23:25;25.85;;;23.10;;
12798;SDS011;19250;42.646;26.980;2023-02-16T10:26:01;27.20;;;22.60;;
12798;SDS011;19250;42.646;26.980;2023-02-16T10:28:36;33.00;;;28.02;;
12798;SDS011;19250;42.646;26.980;2023-02-16T10:31:11;23.92;;;21.38;;
12798;SDS011;19250;42.646;26.980;2023-02-16T10:33:45;22.15;;;19.75;;
12798;SDS011;19250;42.646;26.980;2023-02-16T10:36:31;25.92;;;21.88;;
12798;SDS011;19250;42.646;26.980;2023-02-16T10:39:13;19.00;;;16.77;;
12798;SDS011;19250;42.646;26.980;2023-02-16T10:41:46;24.85;;;20.38;;
12798;SDS011;19250;42.646;26.980;2023-02-16T10:44:20;21.55;;;17.58;;
12798;SDS011;19250;42.646;26.980;2023-02-16T10:46:52;26.85;;;21.63;;
12798;SDS011;19250;42.646;26.980;2023-02-16T10:49:22;18.35;;;16.40;;
12798;SDS011;19250;42.646;26.980;2023-02-16T10:51:52;18.88;;;16.15;;
12798;SDS011;19250;42.646;26.980;2023-02-16T10:54:22;26.77;;;22.23;;
12798;SDS011;19250;42.646;26.980;2023-02-16T10:56:52;20.15;;;15.77;;
12798;SDS011;19250;42.646;26.980;2023-02-16T10:59:22;16.52;;;14.82;;
12798;SDS011;19250;42.646;26.980;2023-02-16T11:01:52;17.13;;;15.27;;
12798;SDS011;19250;42.646;26.980;2023-02-16T11:04:32;34.13;;;28.52;;
12798;SDS011;19250;42.646;26.980;2023-02-16T11:07:03;20.90;;;18.70;;
12798;SDS011;19250;42.646;26.980;2023-02-16T11:09:33;26.33;;;21.88;;
12798;SDS011;19250;42.646;26.980;2023-02-16T11:12:01;24.03;;;19.13;;
12798;SDS011;19250;42.646;26.980;2023-02-16T11:14:39;25.92;;;21.05;;
12798;SDS011;19250;42.646;26.980;2023-02-16T11:17:14;19.92;;;15.82;;
12798;SDS011;19250;42.646;26.980;2023-02-16T11:19:46;18.50;;;16.52;;
12798;SDS011;19250;42.646;26.980;2023-02-16T11:22:25;21.48;;;18.10;;
12798;SDS011;19250;42.646;26.980;2023-02-16T11:24:54;25.77;;;20.88;;
12798;SDS011;19250;42.646;26.980;2023-02-16T11:27:24;23.47;;;19.27;;
12798;SDS011;19250;42.646;26.980;2023-02-16T11:30:02;28.70;;;20.50;;
12798;SDS011;19250;42.646;26.980;2023-02-16T11:32:46;58.40;;;52.38;;
12798;SDS011;19250;42.646;26.980;2023-02-16T11:35:14;40.20;;;34.13;;
12798;SDS011;19250;42.646;26.980;2023-02-16T11:37:43;26.73;;;20.73;;
12798;SDS011;19250;42.646;26.980;2023-02-16T11:40:17;29.10;;;21.48;;
12798;SDS011;19250;42.646;26.980;2023-02-16T11:42:48;23.92;;;20.60;;
12798;SDS011;19250;42.646;26.980;2023-02-16T11:45:25;20.90;;;15.63;;
12798;SDS011;19250;42.646;26.980;2023-02-16T11:47:54;21.50;;;16.83;;
12798;SDS011;19250;42.646;26.980;2023-02-16T11:50:24;17.80;;;15.95;;
12798;SDS011;19250;42.646;26.980;2023-02-16T11:52:56;15.25;;;12.55;;
12798;SDS011;19250;42.646;26.980;2023-02-16T11:55:39;16.92;;;13.85;;
12798;SDS011;19250;42.646;26.980;2023-02-16T11:58:15;14.75;;;13.07;;
12798;SDS011;19250;42.646;26.980;2023-02-16T12:00:49;16.85;;;14.75;;
12798;SDS011;19250;42.646;26.980;2023-02-16T12:03:29;17.33;;;15.48;;
12798;SDS011;19250;42.646;26.980;2023-02-16T12:06:11;18.10;;;15.40;;
12798;SDS011;19250;42.646;26.980;2023-02-16T12:09:09;16.23;;;14.52;;
12798;SDS011;19250;42.646;26.980;2023-02-16T12:11:46;11.82;;;10.65;;
12798;SDS011;19250;42.646;26.980;2023-02-16T12:14:24;11.80;;;10.60;;
12798;SDS011;19250;42.646;26.980;2023-02-16T12:17:01;15.07;;;12.77;;
12798;SDS011;19250;42.646;26.980;2023-02-16T12:19:39;15.48;;;11.60;;
12798;SDS011;19250;42.646;26.980;2023-02-16T12:22:13;9.98;;;8.40;;
12798;SDS011;19250;42.646;26.980;2023-02-16T12:24:51;11.77;;;10.40;;
12798;SDS011;19250;42.646;26.980;2023-02-16T12:27:30;13.18;;;10.63;;
12798;SDS011;19250;42.646;26.980;2023-02-16T12:30:06;19.15;;;13.00;;
12798;SDS011;19250;42.646;26.980;2023-02-16T12:32:48;24.45;;;17.83;;
12798;SDS011;19250;42.646;26.980;2023-02-16T12:38:26;10.02;;;8.90;;
12798;SDS011;19250;42.646;26.980;2023-02-16T12:41:09;14.18;;;12.10;;
12798;SDS011;19250;42.646;26.980;2023-02-16T12:43:46;11.85;;;10.45;;
12798;SDS011;19250;42.646;26.980;2023-02-16T12:46:18;20.90;;;16.77;;
12798;SDS011;19250;42.646;26.980;2023-02-16T12:48:52;15.77;;;12.73;;
12798;SDS011;19250;42.646;26.980;2023-02-16T12:51:26;10.70;;;8.77;;
12798;SDS011;19250;42.646;26.980;2023-02-16T12:54:00;12.65;;;11.05;;
12798;SDS011;19250;42.646;26.980;2023-02-16T12:56:37;16.27;;;13.70;;
12798;SDS011;19250;42.646;26.980;2023-02-16T12:59:14;31.30;;;24.25;;
12798;SDS011;19250;42.646;26.980;2023-02-16T13:01:45;12.90;;;11.60;;
12798;SDS011;19250;42.646;26.980;2023-02-16T13:04:17;19.42;;;17.33;;
12798;SDS011;19250;42.646;26.980;2023-02-16T13:06:52;8.98;;;8.07;;
12798;SDS011;19250;42.646;26.980;2023-02-16T13:09:28;11.52;;;10.43;;
12798;SDS011;19250;42.646;26.980;2023-02-16T13:12:06;18.08;;;15.00;;
12798;SDS011;19250;42.646;26.980;2023-02-16T13:14:42;13.33;;;12.03;;
12798;SDS011;19250;42.646;26.980;2023-02-16T13:17:14;16.05;;;14.55;;
12798;SDS011;19250;42.646;26.980;2023-02-16T13:19:45;11.98;;;10.75;;
12798;SDS011;19250;42.646;26.980;2023-02-16T13:22:26;12.48;;;9.95;;
12798;SDS011;19250;42.646;26.980;2023-02-16T13:28:17;14.85;;;13.15;;
12798;SDS011;19250;42.646;26.980;2023-02-16T13:31:11;15.05;;;12.88;;
12798;SDS011;19250;42.646;26.980;2023-02-16T13:36:53;13.43;;;12.13;;
12798;SDS011;19250;42.646;26.980;2023-02-16T13:45:52;13.65;;;11.98;;
12798;SDS011;19250;42.646;26.980;2023-02-16T13:48:21;11.25;;;10.05;;
12798;SDS011;19250;42.646;26.980;2023-02-16T13:50:55;18.17;;;15.50;;
12798;SDS011;19250;42.646;26.980;2023-02-16T13:53:24;17.67;;;15.30;;
12798;SDS011;19250;42.646;26.980;2023-02-16T13:58:40;14.23;;;12.53;;
12798;SDS011;19250;42.646;26.980;2023-02-16T14:04:03;13.25;;;11.85;;
12798;SDS011;19250;42.646;26.980;2023-02-16T14:06:33;11.75;;;10.55;;
12798;SDS011;19250;42.646;26.980;2023-02-16T14:12:02;13.73;;;12.18;;
12798;SDS011;19250;42.646;26.980;2023-02-16T14:14:44;11.88;;;10.68;;
12798;SDS011;19250;42.646;26.980;2023-02-16T14:17:23;12.18;;;10.80;;
12798;SDS011;19250;42.646;26.980;2023-02-16T14:19:53;10.45;;;9.00;;
12798;SDS011;19250;42.646;26.980;2023-02-16T14:22:24;11.98;;;10.77;;
12798;SDS011;19250;42.646;26.980;2023-02-16T14:24:58;16.00;;;14.13;;
12798;SDS011;19250;42.646;26.980;2023-02-16T14:27:44;12.10;;;10.90;;
12798;SDS011;19250;42.646;26.980;2023-02-16T14:30:17;14.38;;;12.38;;
12798;SDS011;19250;42.646;26.980;2023-02-16T14:32:50;15.07;;;12.77;;
12798;SDS011;19250;42.646;26.980;2023-02-16T14:35:22;11.18;;;9.98;;
12798;SDS011;19250;42.646;26.980;2023-02-16T14:37:54;17.90;;;13.07;;
12798;SDS011;19250;42.646;26.980;2023-02-16T14:40:38;18.70;;;15.32;;
12798;SDS011;19250;42.646;26.980;2023-02-16T14:43:11;15.97;;;13.60;;
12798;SDS011;19250;42.646;26.980;2023-02-16T14:46:00;18.45;;;16.25;;
12798;SDS011;19250;42.646;26.980;2023-02-16T14:52:12;21.38;;;17.33;;
12798;SDS011;19250;42.646;26.980;2023-02-16T14:58:24;27.85;;;23.35;;
12798;SDS011;19250;42.646;26.980;2023-02-16T15:00:57;32.17;;;25.77;;
12798;SDS011;19250;42.646;26.980;2023-02-16T15:03:38;24.63;;;21.15;;
12798;SDS011;19250;42.646;26.980;2023-02-16T15:06:13;25.10;;;19.77;;
12798;SDS011;19250;42.646;26.980;2023-02-16T15:08:53;29.45;;;23.38;;
12798;SDS011;19250;42.646;26.980;2023-02-16T15:11:23;31.92;;;25.40;;